Time;durP1;ratioP1;P1;durP2;ratioP2;P2;SDS_P1;SDS_P2;PMS_P1;PMS_P2;Temp;Humidity;BMP_temperature;BMP_pressure;BME280_temperature;BME280_humidity;BME280_pressure;Samples;Min_cycle;Max_cycle;Signal;HPM_P1;HPM_P2
2022/04/13 00:01:16;;;;;;;2.75;2.20;;;13.30;99.90;;;;;;5075598;28;20239;-60
2022/04/13 00:03:43;;;;;;;2.50;2.30;;;13.40;99.90;;;;;;5092729;28;20279;-60
2022/04/13 00:06:09;;;;;;;2.83;2.63;;;13.40;99.90;;;;;;5092820;28;20221;-60
2022/04/13 00:08:35;;;;;;;3.28;2.70;;;13.40;99.90;;;;;;5092894;28;20213;-60
2022/04/13 00:11:00;;;;;;;2.85;2.50;;;13.40;99.90;;;;;;5074981;28;20175;-59
2022/04/13 00:13:26;;;;;;;3.60;2.88;;;13.40;99.90;;;;;;5075057;28;20181;-60
2022/04/13 00:15:52;;;;;;;2.85;2.50;;;13.40;99.90;;;;;;5074780;28;20659;-60
2022/04/13 00:18:18;;;;;;;2.38;2.15;;;13.40;99.90;;;;;;5092685;28;20293;-60
2022/04/13 00:20:45;;;;;;;2.35;2.15;;;13.50;99.90;;;;;;5092972;28;20178;-60
2022/04/13 00:23:11;;;;;;;3.08;2.45;;;13.50;99.90;;;;;;5092804;28;20228;-59
2022/04/13 00:25:39;;;;;;;2.83;2.63;;;13.50;99.90;;;;;;5092928;28;20182;-59
2022/04/13 00:28:05;;;;;;;3.92;2.95;;;13.50;99.90;;;;;;5075023;28;20601;-59
2022/04/13 00:30:31;;;;;;;4.55;2.28;;;13.50;99.90;;;;;;5092753;28;20190;-59
2022/04/13 00:32:57;;;;;;;2.40;2.20;;;13.50;99.90;;;;;;5074796;28;20171;-60
2022/04/13 00:35:23;;;;;;;2.25;2.05;;;13.50;99.90;;;;;;5074905;28;20186;-59
2022/04/13 00:37:49;;;;;;;3.30;2.60;;;13.50;99.90;;;;;;5092833;28;20244;-59
2022/04/13 00:40:14;;;;;;;2.20;2.00;;;13.40;99.90;;;;;;5074627;28;20203;-59
2022/04/13 00:42:40;;;;;;;2.60;2.35;;;13.30;99.90;;;;;;5095319;28;20307;-62
2022/04/13 00:45:06;;;;;;;2.28;1.98;;;13.20;99.90;;;;;;5078222;28;20177;-59
2022/04/13 00:47:39;;;;;;;2.75;2.20;;;13.20;99.90;;;;;;5096279;28;20653;-59
2022/04/13 00:50:06;;;;;;;2.83;2.60;;;13.20;99.90;;;;;;5096135;28;20166;-59
2022/04/13 00:52:35;;;;;;;2.45;2.17;;;13.30;99.90;;;;;;5096267;28;20182;-59
2022/04/13 00:55:03;;;;;;;3.20;2.45;;;13.30;99.90;;;;;;5096092;28;20641;-59
2022/04/13 00:57:32;;;;;;;2.15;1.90;;;13.30;99.90;;;;;;5096014;28;20202;-59
2022/04/13 00:59:59;;;;;;;2.70;2.40;;;13.40;99.90;;;;;;5096034;28;20178;-59
2022/04/13 01:02:27;;;;;;;3.55;2.53;;;13.40;99.90;;;;;;5095819;28;20200;-59
2022/04/13 01:04:54;;;;;;;3.47;2.67;;;13.50;99.90;;;;;;5095852;28;20213;-59
2022/04/13 01:07:22;;;;;;;2.10;1.85;;;13.40;99.90;;;;;;5095943;28;20704;-59
2022/04/13 01:09:49;;;;;;;2.40;2.20;;;13.40;99.90;;;;;;5077854;28;20193;-59
2022/04/13 01:12:16;;;;;;;3.17;2.08;;;13.40;99.90;;;;;;5095593;28;20603;-59
2022/04/13 01:14:42;;;;;;;1.92;1.83;;;13.40;99.90;;;;;;5095693;28;20174;-59
2022/04/13 01:17:08;;;;;;;3.10;2.30;;;13.40;99.90;;;;;;5077857;28;20210;-59
2022/04/13 01:19:33;;;;;;;2.70;2.50;;;13.40;99.90;;;;;;5095837;28;20178;-59
2022/04/13 01:22:12;;;;;;;2.65;2.10;;;13.40;99.90;;;;;;5077730;28;20174;-59
2022/04/13 01:24:38;;;;;;;3.15;1.85;;;13.40;99.90;;;;;;5095782;28;20265;-59
2022/04/13 01:27:03;;;;;;;2.65;2.25;;;13.40;99.90;;;;;;5095492;28;20268;-59
2022/04/13 01:29:29;;;;;;;2.92;2.30;;;13.40;99.90;;;;;;5077402;28;20202;-59
2022/04/13 01:31:56;;;;;;;3.08;2.60;;;13.30;99.90;;;;;;5077751;28;20185;-59
2022/04/13 01:34:22;;;;;;;3.13;2.70;;;13.30;99.90;;;;;;5095651;28;20185;-59
2022/04/13 01:36:47;;;;;;;2.90;2.55;;;13.30;99.90;;;;;;5095360;28;20173;-58
2022/04/13 01:39:13;;;;;;;3.80;2.63;;;13.20;99.90;;;;;;5095395;28;20179;-60
2022/04/13 01:41:39;;;;;;;3.28;2.88;;;13.20;99.90;;;;;;5095223;28;20200;-59
2022/04/13 01:44:05;;;;;;;4.15;2.67;;;13.20;99.90;;;;;;5076921;28;20177;-59
2022/04/13 01:46:30;;;;;;;3.33;2.75;;;13.10;99.90;;;;;;5095316;28;20174;-60
2022/04/13 01:48:56;;;;;;;2.47;2.25;;;13.10;99.90;;;;;;5077250;28;20174;-60
2022/04/13 01:51:22;;;;;;;3.15;2.75;;;13.00;99.90;;;;;;5093694;28;20181;-60
2022/04/13 01:53:49;;;;;;;3.35;2.70;;;13.00;99.90;;;;;;5093969;28;20667;-60
2022/04/13 01:56:15;;;;;;;3.00;2.70;;;13.00;99.90;;;;;;5095019;28;20563;-60
2022/04/13 01:58:40;;;;;;;3.22;2.90;;;13.00;99.90;;;;;;5076651;28;20616;-60
2022/04/13 02:01:06;;;;;;;4.18;3.05;;;12.90;99.90;;;;;;5094749;28;20166;-60
2022/04/13 02:03:32;;;;;;;3.15;2.50;;;12.90;99.90;;;;;;5094661;28;20276;-60
2022/04/13 02:05:58;;;;;;;3.47;2.75;;;12.90;99.90;;;;;;5094837;28;20224;-59
2022/04/13 02:08:24;;;;;;;3.53;2.95;;;12.90;99.90;;;;;;5076576;28;20208;-58
2022/04/13 02:10:50;;;;;;;3.10;2.80;;;12.90;99.90;;;;;;5094579;28;20184;-60
2022/04/13 02:13:16;;;;;;;3.22;2.92;;;12.90;99.90;;;;;;5094545;28;20174;-60
2022/04/13 02:15:42;;;;;;;3.22;2.92;;;12.90;99.90;;;;;;5094478;28;20178;-60
2022/04/13 02:18:07;;;;;;;5.20;3.50;;;12.90;99.90;;;;;;5076608;28;20572;-59
2022/04/13 02:20:33;;;;;;;4.30;3.90;;;12.80;99.90;;;;;;5094848;28;20675;-59
2022/04/13 02:23:01;;;;;;;4.65;3.60;;;12.90;99.90;;;;;;5076262;28;20178;-61
2022/04/13 02:25:27;;;;;;;3.85;3.50;;;12.90;99.90;;;;;;5094404;28;20663;-61
2022/04/13 02:27:53;;;;;;;3.35;3.05;;;12.90;99.90;;;;;;5094470;28;20178;-60
2022/04/13 02:30:18;;;;;;;3.58;2.90;;;12.90;99.90;;;;;;5094292;28;20175;-60
2022/04/13 02:32:44;;;;;;;3.40;2.97;;;12.90;99.90;;;;;;5094326;28;20244;-59
2022/04/13 02:35:10;;;;;;;3.60;3.30;;;13.00;99.90;;;;;;5059496;28;20197;-59
2022/04/13 02:37:36;;;;;;;3.50;3.00;;;13.00;99.90;;;;;;5076236;28;20293;-59
2022/04/13 02:40:02;;;;;;;4.72;3.47;;;13.00;99.90;;;;;;5094043;28;20249;-58
2022/04/13 02:42:35;;;;;;;3.72;3.33;;;12.90;99.90;;;;;;5094260;28;20181;-59
2022/04/13 02:45:03;;;;;;;3.65;2.97;;;12.90;99.90;;;;;;5094245;28;20185;-60
2022/04/13 02:47:28;;;;;;;4.18;3.65;;;12.90;99.90;;;;;;5093967;28;20190;-60
2022/04/13 02:49:55;;;;;;;3.97;3.17;;;12.90;99.90;;;;;;5094004;28;20227;-59
2022/04/13 02:52:21;;;;;;;3.25;2.90;;;12.90;99.90;;;;;;5093982;28;20178;-59
2022/04/13 02:54:47;;;;;;;3.80;3.03;;;12.90;99.90;;;;;;5075915;28;20178;-59
2022/04/13 02:57:12;;;;;;;4.05;3.28;;;12.90;99.90;;;;;;5075613;28;20198;-59
2022/04/13 02:59:38;;;;;;;4.55;3.75;;;12.90;99.90;;;;;;5093664;28;20566;-59
2022/04/13 03:02:04;;;;;;;8.00;3.70;;;12.90;99.90;;;;;;5075732;28;20178;-59
2022/04/13 03:04:32;;;;;;;4.45;3.53;;;12.90;99.90;;;;;;5075194;28;20189;-59
2022/04/13 03:06:58;;;;;;;6.25;4.95;;;12.90;99.90;;;;;;5093632;28;20174;-59
2022/04/13 03:09:24;;;;;;;5.10;4.25;;;12.90;99.90;;;;;;5075616;28;20253;-58
2022/04/13 03:11:50;;;;;;;5.20;3.70;;;12.80;99.90;;;;;;5075541;28;20269;-59
2022/04/13 03:14:16;;;;;;;5.53;4.13;;;12.80;99.90;;;;;;5075363;28;20200;-59
2022/04/13 03:16:41;;;;;;;4.32;3.80;;;12.90;99.90;;;;;;5093512;28;20212;-59
2022/04/13 03:19:07;;;;;;;4.93;3.80;;;12.90;99.90;;;;;;5075378;28;20247;-59
2022/04/13 03:21:33;;;;;;;4.90;3.80;;;12.90;99.90;;;;;;5093389;28;20299;-59
2022/04/13 03:23:58;;;;;;;5.10;4.10;;;12.80;99.90;;;;;;5093468;28;20170;-59
2022/04/13 03:26:24;;;;;;;5.55;3.83;;;12.80;99.90;;;;;;5093324;28;20253;-59
2022/04/13 03:28:50;;;;;;;5.05;3.67;;;12.90;99.90;;;;;;5075556;28;20177;-58
2022/04/13 03:31:16;;;;;;;5.32;4.18;;;12.90;99.90;;;;;;5075611;28;20215;-59
2022/04/13 03:33:42;;;;;;;6.20;3.50;;;12.80;99.90;;;;;;5093105;28;20188;-59
2022/04/13 03:36:08;;;;;;;4.32;3.67;;;12.70;99.90;;;;;;5093276;28;20170;-59
2022/04/13 03:38:34;;;;;;;4.50;3.53;;;12.70;99.90;;;;;;5075170;28;20556;-59
2022/04/13 03:41:02;;;;;;;5.35;4.00;;;12.60;99.90;;;;;;5074976;28;20173;-59
2022/04/13 03:43:28;;;;;;;5.65;4.25;;;12.60;99.90;;;;;;5093576;28;20198;-58
2022/04/13 03:45:54;;;;;;;4.88;4.15;;;12.50;99.90;;;;;;5093594;28;20170;-58
2022/04/13 03:48:20;;;;;;;4.57;3.75;;;12.40;99.90;;;;;;5093184;28;20188;-58
2022/04/13 03:50:46;;;;;;;5.15;3.88;;;12.40;99.90;;;;;;5058377;28;20208;-59
2022/04/13 03:53:12;;;;;;;4.95;3.72;;;12.40;99.90;;;;;;5093041;28;20166;-59
2022/04/13 03:55:37;;;;;;;4.32;3.50;;;12.30;99.90;;;;;;5092982;28;20177;-60
2022/04/13 03:58:03;;;;;;;5.25;3.70;;;12.30;99.90;;;;;;5093077;28;20205;-60
2022/04/13 04:00:29;;;;;;;5.07;3.97;;;12.20;99.90;;;;;;5092934;28;20177;-59
2022/04/13 04:02:55;;;;;;;4.97;4.13;;;12.20;99.90;;;;;;5093071;28;20300;-59
2022/04/13 04:05:21;;;;;;;5.28;4.32;;;12.10;99.90;;;;;;5074974;28;20189;-59
2022/04/13 04:07:48;;;;;;;5.50;3.75;;;12.10;99.90;;;;;;5075066;28;20185;-59
2022/04/13 04:10:13;;;;;;;4.05;3.42;;;12.10;99.90;;;;;;5074980;28;20663;-59
2022/04/13 04:12:40;;;;;;;5.35;3.78;;;12.10;99.90;;;;;;5093092;28;20174;-59
2022/04/13 04:15:09;;;;;;;4.55;3.72;;;12.00;99.90;;;;;;5093035;28;20226;-59
2022/04/13 04:17:35;;;;;;;4.88;4.25;;;12.10;99.90;;;;;;5095553;28;20600;-59
2022/04/13 04:20:01;;;;;;;4.97;3.92;;;12.00;99.90;;;;;;5078751;28;20256;-59
2022/04/13 04:22:27;;;;;;;6.93;4.50;;;12.10;99.90;;;;;;5096739;28;20213;-59
2022/04/13 04:24:53;;;;;;;5.63;3.95;;;12.00;99.90;;;;;;5078522;28;20620;-59
2022/04/13 04:27:19;;;;;;;5.82;3.83;;;11.90;99.90;;;;;;5062156;28;20602;-59
2022/04/13 04:29:45;;;;;;;4.60;3.78;;;11.90;99.90;;;;;;5078710;28;20174;-59
2022/04/13 04:32:10;;;;;;;4.93;4.30;;;11.80;99.90;;;;;;5096450;28;20200;-60
2022/04/13 04:34:36;;;;;;;4.60;4.20;;;11.80;99.90;;;;;;5078492;28;20211;-59
2022/04/13 04:37:02;;;;;;;5.75;4.93;;;11.80;99.90;;;;;;5078230;28;20169;-59
2022/04/13 04:39:28;;;;;;;5.95;4.65;;;11.80;99.90;;;;;;5078382;28;20702;-59
2022/04/13 04:41:54;;;;;;;4.47;3.80;;;11.70;99.90;;;;;;5096527;28;20170;-59
2022/04/13 04:44:20;;;;;;;4.65;3.92;;;11.60;99.90;;;;;;5096461;28;20174;-59
2022/04/13 04:46:46;;;;;;;4.93;4.05;;;11.60;99.90;;;;;;5078301;28;20247;-59
2022/04/13 04:49:11;;;;;;;5.63;4.30;;;11.70;99.90;;;;;;5078099;28;20178;-59
2022/04/13 04:51:37;;;;;;;5.07;4.43;;;11.70;99.90;;;;;;5095990;28;20180;-59
2022/04/13 04:54:03;;;;;;;4.43;4.03;;;11.70;99.90;;;;;;5096327;28;20575;-59
2022/04/13 04:56:29;;;;;;;5.10;4.25;;;11.70;99.90;;;;;;5095772;28;20178;-59
2022/04/13 04:58:56;;;;;;;4.72;4.15;;;11.60;99.90;;;;;;5096063;28;20194;-59
2022/04/13 05:01:21;;;;;;;4.70;4.18;;;11.60;99.90;;;;;;5096067;28;20257;-59
2022/04/13 05:03:50;;;;;;;4.72;3.80;;;11.60;99.90;;;;;;5095986;28;20272;-60
2022/04/13 05:06:19;;;;;;;4.45;3.97;;;11.60;99.90;;;;;;5078241;28;20174;-60
2022/04/13 05:08:44;;;;;;;5.90;4.40;;;11.60;99.90;;;;;;5095938;28;20189;-60
2022/04/13 05:11:10;;;;;;;6.00;4.57;;;11.70;99.90;;;;;;5095928;28;20170;-60
2022/04/13 05:13:36;;;;;;;5.30;4.18;;;11.70;99.90;;;;;;5077757;28;20178;-60
2022/04/13 05:16:01;;;;;;;5.03;3.97;;;11.70;99.90;;;;;;5095759;28;20178;-60
2022/04/13 05:18:27;;;;;;;7.50;4.70;;;11.70;99.90;;;;;;5060824;28;20251;-59
2022/04/13 05:20:53;;;;;;;5.95;4.60;;;11.80;99.90;;;;;;5095589;28;20644;-60
2022/04/13 05:23:18;;;;;;;5.50;4.40;;;11.80;99.90;;;;;;5061271;28;20209;-60
2022/04/13 05:25:46;;;;;;;4.57;4.18;;;11.80;99.90;;;;;;5077031;28;20637;-59
2022/04/13 05:28:12;;;;;;;5.70;4.38;;;11.90;99.90;;;;;;5077695;28;20213;-59
2022/04/13 05:30:38;;;;;;;5.55;4.50;;;11.90;99.90;;;;;;5095445;28;20174;-60
2022/04/13 05:33:05;;;;;;;5.25;4.40;;;11.90;99.90;;;;;;5077330;28;20174;-64
2022/04/13 05:35:31;;;;;;;7.10;4.93;;;11.90;99.90;;;;;;5095265;28;20173;-60
2022/04/13 05:37:57;;;;;;;5.55;4.68;;;12.00;99.90;;;;;;5095399;28;20210;-59
2022/04/13 05:40:24;;;;;;;4.90;4.25;;;12.00;99.90;;;;;;5077285;28;20186;-60
2022/04/13 05:42:50;;;;;;;6.00;4.72;;;12.10;99.90;;;;;;5095424;28;20178;-60
2022/04/13 05:45:17;;;;;;;8.27;4.80;;;12.10;99.90;;;;;;5095242;28;20166;-60
2022/04/13 05:47:43;;;;;;;5.55;4.68;;;12.20;99.90;;;;;;5095060;28;20224;-60
2022/04/13 05:50:10;;;;;;;5.85;4.65;;;12.30;99.90;;;;;;5060674;28;20174;-60
2022/04/13 05:52:36;;;;;;;5.03;4.47;;;12.40;99.90;;;;;;5095568;28;20169;-59
2022/04/13 05:55:02;;;;;;;5.07;4.53;;;12.40;99.90;;;;;;5095070;28;20174;-59
2022/04/13 05:57:27;;;;;;;5.45;4.65;;;12.50;99.90;;;;;;5094948;28;20209;-59
2022/04/13 05:59:53;;;;;;;5.82;4.47;;;12.60;99.90;;;;;;5094922;28;20189;-59
2022/04/13 06:02:19;;;;;;;7.82;5.10;;;12.80;99.90;;;;;;5076449;28;20178;-59
2022/04/13 06:04:45;;;;;;;5.82;4.47;;;12.90;99.90;;;;;;5076898;28;20224;-60
2022/04/13 06:07:11;;;;;;;5.80;4.68;;;13.10;99.90;;;;;;5094940;28;20201;-61
2022/04/13 06:09:37;;;;;;;7.32;4.25;;;13.20;99.90;;;;;;5094846;28;20177;-59
2022/04/13 06:12:03;;;;;;;5.47;4.28;;;13.20;99.90;;;;;;5076749;28;20644;-59
2022/04/13 06:14:28;;;;;;;4.82;3.90;;;13.20;99.90;;;;;;5094631;28;20170;-59
2022/04/13 06:16:54;;;;;;;5.30;4.18;;;13.30;99.90;;;;;;5094460;28;20210;-59
2022/04/13 06:19:20;;;;;;;5.30;4.00;;;13.30;99.90;;;;;;5076285;28;20178;-59
2022/04/13 06:21:46;;;;;;;5.30;4.03;;;13.30;99.90;;;;;;5076461;28;20186;-58
2022/04/13 06:24:11;;;;;;;4.82;4.05;;;13.40;99.90;;;;;;5094328;28;20264;-59
2022/04/13 06:26:37;;;;;;;5.10;3.80;;;13.40;99.90;;;;;;5076312;28;20178;-58
2022/04/13 06:29:03;;;;;;;6.13;3.72;;;13.40;99.90;;;;;;5094364;28;20201;-61
2022/04/13 06:31:29;;;;;;;4.03;3.60;;;13.40;99.90;;;;;;5076154;28;20186;-59
2022/04/13 06:33:55;;;;;;;4.82;3.58;;;13.60;99.90;;;;;;5094086;28;20260;-59
2022/04/13 06:36:21;;;;;;;5.65;3.92;;;13.70;99.90;;;;;;5094464;28;20252;-59
2022/04/13 06:38:46;;;;;;;3.85;3.38;;;13.80;99.90;;;;;;5093747;28;20213;-59
2022/04/13 06:41:12;;;;;;;4.57;3.33;;;13.80;99.90;;;;;;5094094;28;20228;-59
2022/04/13 06:43:39;;;;;;;4.63;3.60;;;13.90;99.90;;;;;;5076034;28;20583;-59
2022/04/13 06:46:05;;;;;;;4.18;3.35;;;14.10;99.90;;;;;;5094027;28;20261;-59
2022/04/13 06:48:31;;;;;;;4.57;3.45;;;14.10;99.90;;;;;;5093871;28;20181;-59
2022/04/13 06:50:57;;;;;;;5.15;3.83;;;14.10;99.90;;;;;;5075894;28;20398;-59
2022/04/13 06:53:24;;;;;;;4.78;3.35;;;14.10;99.90;;;;;;5076073;28;20166;-59
2022/04/13 06:55:50;;;;;;;5.10;4.20;;;14.40;99.90;;;;;;5094200;28;20166;-59
2022/04/13 06:58:16;;;;;;;4.05;3.63;;;14.30;99.90;;;;;;5075743;28;20263;-59
2022/04/13 07:00:42;;;;;;;4.13;3.70;;;14.30;99.90;;;;;;5075523;28;20272;-59
2022/04/13 07:03:08;;;;;;;5.47;3.80;;;14.40;99.90;;;;;;5093690;28;20178;-58
2022/04/13 07:05:34;;;;;;;6.80;3.88;;;14.40;99.90;;;;;;5075762;28;20182;-59
2022/04/13 07:08:02;;;;;;;6.97;3.78;;;14.40;99.90;;;;;;5075811;28;20315;-59
2022/04/13 07:10:29;;;;;;;5.32;3.42;;;14.40;99.90;;;;;;5093709;28;20178;-59
2022/04/13 07:12:55;;;;;;;4.47;3.90;;;14.40;99.90;;;;;;5093534;28;20193;-59
2022/04/13 07:15:21;;;;;;;7.25;4.03;;;14.40;99.90;;;;;;5093493;28;20189;-59
2022/04/13 07:17:46;;;;;;;4.70;3.53;;;14.50;99.90;;;;;;5075163;28;20218;-59
2022/04/13 07:20:13;;;;;;;4.93;3.50;;;14.50;99.90;;;;;;5075317;28;20170;-59
2022/04/13 07:22:46;;;;;;;4.18;3.50;;;14.60;99.90;;;;;;5093427;28;20255;-59
2022/04/13 07:25:13;;;;;;;4.72;3.40;;;14.70;99.90;;;;;;5093555;28;20215;-59
2022/04/13 07:27:39;;;;;;;4.75;3.45;;;14.70;99.90;;;;;;5093353;28;20173;-59
2022/04/13 07:30:05;;;;;;;4.15;3.65;;;14.70;99.90;;;;;;5075394;28;20540;-59
2022/04/13 07:32:30;;;;;;;4.75;3.42;;;14.70;99.90;;;;;;5075395;28;20180;-59
2022/04/13 07:34:59;;;;;;;5.95;3.63;;;14.80;99.90;;;;;;5093360;28;20182;-59
2022/04/13 07:37:26;;;;;;;7.40;3.50;;;14.90;99.90;;;;;;5093288;28;20205;-59
2022/04/13 07:39:55;;;;;;;5.10;3.75;;;15.00;99.90;;;;;;5093240;28;20624;-59
2022/04/13 07:42:27;;;;;;;5.38;3.72;;;15.10;99.90;;;;;;5093174;28;20637;-59
2022/04/13 07:44:53;;;;;;;5.13;3.80;;;15.10;99.90;;;;;;5093072;28;20633;-60
2022/04/13 07:47:22;;;;;;;3.67;3.30;;;15.10;99.90;;;;;;5093553;28;20181;-59
2022/04/13 07:49:49;;;;;;;3.80;3.08;;;15.10;99.90;;;;;;5093091;28;20173;-59
2022/04/13 07:52:16;;;;;;;5.07;3.63;;;15.20;99.90;;;;;;5095641;28;20182;-59
2022/04/13 07:54:44;;;;;;;4.05;3.65;;;15.30;99.90;;;;;;5079227;28;20253;-59
2022/04/13 07:57:10;;;;;;;5.30;3.85;;;15.40;99.90;;;;;;5078763;28;20177;-59
2022/04/13 07:59:36;;;;;;;4.75;3.90;;;15.60;99.90;;;;;;5097451;28;20261;-59
2022/04/13 08:02:02;;;;;;;3.78;3.20;;;15.60;99.90;;;;;;5097267;28;20700;-59
2022/04/13 08:04:28;;;;;;;5.63;3.33;;;15.50;99.90;;;;;;5078793;28;20193;-59
2022/04/13 08:06:54;;;;;;;5.03;3.50;;;15.50;99.90;;;;;;5079106;28;20170;-59
2022/04/13 08:09:20;;;;;;;4.35;3.65;;;15.60;99.90;;;;;;5097111;28;20170;-59
2022/04/13 08:11:46;;;;;;;3.50;2.92;;;15.70;99.90;;;;;;5096852;28;20188;-59
2022/04/13 08:14:12;;;;;;;3.97;3.10;;;15.60;99.90;;;;;;5097106;28;20170;-59
2022/04/13 08:16:37;;;;;;;4.15;3.55;;;15.70;99.90;;;;;;5096865;28;20710;-59
2022/04/13 08:19:05;;;;;;;3.35;3.05;;;15.70;99.90;;;;;;5096813;28;20297;-59
2022/04/13 08:21:31;;;;;;;3.60;3.03;;;15.70;99.90;;;;;;5096861;28;20186;-59
2022/04/13 08:23:57;;;;;;;4.43;3.78;;;15.70;99.90;;;;;;5078681;28;20185;-59
2022/04/13 08:26:22;;;;;;;4.30;3.40;;;15.60;99.90;;;;;;5096635;28;20174;-60
2022/04/13 08:28:48;;;;;;;4.20;3.35;;;15.60;99.90;;;;;;5096616;28;20644;-59
2022/04/13 08:31:14;;;;;;;4.32;3.60;;;15.60;99.90;;;;;;5096701;28;20186;-59
2022/04/13 08:33:39;;;;;;;4.10;3.70;;;15.70;99.90;;;;;;5096941;28;20602;-59
2022/04/13 08:36:05;;;;;;;5.22;3.70;;;15.70;99.90;;;;;;5096585;28;20170;-59
2022/04/13 08:38:31;;;;;;;4.35;3.83;;;15.70;99.90;;;;;;5096525;28;20216;-59
2022/04/13 08:41:14;;;;;;;6.97;4.10;;;15.70;99.90;;;;;;5078351;28;20202;-59
2022/04/13 08:43:45;;;;;;;4.72;4.15;;;15.70;99.90;;;;;;5095473;28;20182;-59
2022/04/13 08:46:27;;;;;;;5.28;3.75;;;15.70;99.90;;;;;;5096490;28;20169;-59
2022/04/13 08:48:56;;;;;;;4.00;3.30;;;15.80;99.90;;;;;;5096275;28;20204;-59
2022/04/13 08:51:23;;;;;;;5.28;3.67;;;15.70;99.90;;;;;;5096212;28;20203;-59
2022/04/13 08:53:59;;;;;;;3.85;3.20;;;15.80;99.90;;;;;;5096699;28;20289;-59
2022/04/13 08:56:26;;;;;;;4.68;3.67;;;16.00;99.90;;;;;;5096621;28;20628;-59
2022/04/13 08:59:03;;;;;;;6.57;3.85;;;16.20;99.90;;;;;;5096020;28;20233;-59
2022/04/13 09:01:50;;;;;;;4.63;3.50;;;16.30;99.90;;;;;;5096166;28;20166;-59
2022/04/13 09:04:20;;;;;;;4.40;3.72;;;16.40;99.90;;;;;;5095826;28;20201;-59
2022/04/13 09:06:47;;;;;;;4.90;3.47;;;16.50;99.90;;;;;;5096284;28;20177;-59
2022/04/13 09:09:19;;;;;;;4.40;3.40;;;16.30;99.90;;;;;;5095992;28;20261;-59
2022/04/13 09:11:46;;;;;;;4.78;3.58;;;16.30;99.90;;;;;;5095990;28;20578;-59
2022/04/13 09:14:13;;;;;;;4.22;3.38;;;16.20;99.90;;;;;;5077589;28;20188;-59
2022/04/13 09:16:43;;;;;;;6.50;3.63;;;16.20;99.90;;;;;;5095917;28;20174;-59
2022/04/13 09:19:09;;;;;;;5.53;3.75;;;16.10;99.90;;;;;;5095694;28;20255;-60
2022/04/13 09:21:35;;;;;;;5.00;4.20;;;16.20;99.90;;;;;;5077984;28;20175;-60
2022/04/13 09:24:02;;;;;;;5.07;4.10;;;16.20;99.90;;;;;;5095653;28;20167;-60
2022/04/13 09:26:29;;;;;;;4.50;3.60;;;16.20;99.90;;;;;;5095564;28;20311;-59
2022/04/13 09:28:55;;;;;;;5.53;3.97;;;16.30;99.90;;;;;;5095357;28;20576;-59
2022/04/13 09:31:21;;;;;;;3.50;3.17;;;16.20;99.90;;;;;;5095688;28;20189;-60
2022/04/13 09:33:47;;;;;;;4.80;3.65;;;16.10;99.90;;;;;;5095392;28;20173;-60
2022/04/13 09:36:13;;;;;;;5.40;4.15;;;16.20;99.90;;;;;;5095470;28;20201;-59
2022/04/13 09:38:39;;;;;;;4.50;3.97;;;16.40;99.90;;;;;;5095324;28;20303;-59
2022/04/13 09:41:11;;;;;;;5.13;3.80;;;16.20;99.90;;;;;;5095226;28;20174;-60
2022/04/13 09:43:38;;;;;;;6.60;4.45;;;16.20;99.90;;;;;;5077414;28;20232;-59
2022/04/13 09:46:04;;;;;;;4.05;3.38;;;16.20;99.90;;;;;;5095339;28;20180;-60
2022/04/13 09:48:30;;;;;;;4.10;3.20;;;16.20;99.90;;;;;;5095279;28;20170;-60
2022/04/13 09:51:00;;;;;;;5.47;3.85;;;16.20;99.90;;;;;;5095123;28;20170;-60
2022/04/13 09:53:26;;;;;;;4.85;3.78;;;16.20;99.90;;;;;;5095084;28;20565;-60
2022/04/13 09:55:54;;;;;;;5.70;4.00;;;16.10;99.90;;;;;;5076853;28;20173;-60
2022/04/13 09:58:22;;;;;;;5.38;3.88;;;16.10;99.90;;;;;;5095246;28;20209;-60
2022/04/13 10:00:51;;;;;;;4.32;3.42;;;16.20;99.90;;;;;;5095044;28;20177;-60
2022/04/13 10:03:18;;;;;;;6.30;3.63;;;16.20;99.90;;;;;;5094808;28;20170;-59
2022/04/13 10:05:50;;;;;;;5.50;3.83;;;16.10;99.90;;;;;;5060435;28;20174;-60
2022/04/13 10:08:22;;;;;;;5.00;3.60;;;15.90;99.90;;;;;;5076778;28;20190;-59
2022/04/13 10:10:49;;;;;;;5.43;4.00;;;15.90;99.90;;;;;;5094907;28;20177;-60
2022/04/13 10:13:35;;;;;;;6.10;4.13;;;15.80;99.90;;;;;;5094756;28;20667;-59
2022/04/13 10:16:09;;;;;;;6.07;4.40;;;15.90;99.90;;;;;;5094122;28;20178;-60
2022/04/13 10:18:54;;;;;;;4.68;3.92;;;16.00;99.90;;;;;;5094529;28;20548;-60
2022/04/13 10:21:43;;;;;;;6.68;4.70;;;16.10;99.90;;;;;;5094637;28;20181;-60
2022/04/13 10:24:29;;;;;;;6.88;4.32;;;16.00;99.90;;;;;;5094466;28;20216;-60
2022/04/13 10:27:09;;;;;;;6.10;4.28;;;15.90;99.90;;;;;;5094336;28;20256;-59
2022/04/13 10:29:40;;;;;;;5.88;4.75;;;15.90;99.90;;;;;;5094561;28;20166;-60
2022/04/13 10:32:16;;;;;;;7.10;4.80;;;15.90;99.90;;;;;;5094486;28;20173;-60
2022/04/13 10:34:46;;;;;;;6.03;4.97;;;15.80;99.90;;;;;;5094702;28;20233;-60
2022/04/13 10:37:14;;;;;;;7.85;5.72;;;15.80;99.90;;;;;;5076221;28;20336;-60
2022/04/13 10:39:41;;;;;;;8.43;5.43;;;15.90;99.90;;;;;;5094027;28;20269;-59
2022/04/13 10:42:11;;;;;;;8.35;5.63;;;15.80;99.90;;;;;;5094296;28;20176;-60
2022/04/13 10:44:43;;;;;;;5.78;5.15;;;15.70;99.90;;;;;;5094341;28;20169;-60
2022/04/13 10:47:12;;;;;;;6.78;5.95;;;15.60;99.90;;;;;;5094169;28;20176;-59
2022/04/13 10:49:47;;;;;;;7.80;5.40;;;15.70;99.90;;;;;;5094055;28;20256;-60
2022/04/13 10:52:42;;;;;;;6.78;5.20;;;15.60;99.90;;;;;;5093891;28;20222;-60
2022/04/13 10:55:12;;;;;;;7.72;5.28;;;15.60;99.90;;;;;;5051101;28;20268;-59
2022/04/13 10:57:46;;;;;;;8.00;5.90;;;15.70;99.90;;;;;;5094097;28;20201;-60
2022/04/13 11:00:16;;;;;;;9.43;5.80;;;15.70;99.90;;;;;;5093792;28;20161;-59
2022/04/13 11:02:57;;;;;;;6.05;5.20;;;15.70;99.90;;;;;;5093547;28;20231;-59
2022/04/13 11:05:27;;;;;;;7.38;5.03;;;15.60;99.90;;;;;;5093972;28;20215;-60
2022/04/13 11:08:10;;;;;;;7.18;4.68;;;15.60;99.90;;;;;;5093714;28;20174;-59
2022/04/13 11:10:37;;;;;;;8.77;5.82;;;15.70;99.90;;;;;;5093652;28;20166;-59
2022/04/13 11:13:03;;;;;;;7.65;5.57;;;15.70;99.90;;;;;;5093550;28;20575;-59
2022/04/13 11:15:49;;;;;;;7.82;5.70;;;15.80;99.90;;;;;;5093713;28;20178;-60
2022/04/13 11:18:17;;;;;;;6.18;5.57;;;15.90;99.90;;;;;;5093608;28;20197;-60
2022/04/13 11:21:01;;;;;;;8.05;6.03;;;15.90;99.90;;;;;;5093461;28;20170;-60
2022/04/13 11:23:48;;;;;;;7.05;5.65;;;16.00;99.90;;;;;;5093419;28;20170;-60
2022/04/13 11:26:14;;;;;;;8.45;6.28;;;16.20;99.90;;;;;;5093414;28;20162;-60
2022/04/13 11:28:40;;;;;;;8.10;6.63;;;16.40;99.90;;;;;;5075505;28;20745;-60
2022/04/13 11:31:08;;;;;;;7.40;6.07;;;16.50;99.90;;;;;;5075543;28;20182;-60
2022/04/13 11:33:52;;;;;;;8.23;5.72;;;16.40;99.90;;;;;;5093153;28;20227;-60
2022/04/13 11:36:22;;;;;;;6.32;5.63;;;16.40;99.90;;;;;;5093332;28;20613;-60
2022/04/13 11:38:49;;;;;;;5.85;5.22;;;16.30;99.90;;;;;;5093159;28;20588;-60
2022/04/13 11:41:16;;;;;;;7.60;6.07;;;16.20;99.90;;;;;;5093262;28;20575;-59
2022/04/13 11:43:42;;;;;;;6.53;5.57;;;16.20;99.90;;;;;;5093200;28;20174;-60
2022/04/13 11:46:11;;;;;;;8.00;5.90;;;16.20;99.90;;;;;;5093119;28;20641;-59
2022/04/13 11:48:37;;;;;;;8.45;5.25;;;16.10;99.90;;;;;;5093148;28;20174;-59
2022/04/13 11:51:23;;;;;;;7.55;5.55;;;16.00;99.90;;;;;;5093359;28;20178;-59
2022/04/13 11:53:56;;;;;;;6.47;4.97;;;16.00;99.90;;;;;;5093345;28;20165;-59
2022/04/13 11:56:52;;;;;;;6.68;5.13;;;15.90;99.90;;;;;;5075098;28;20257;-60
2022/04/13 11:59:47;;;;;;;7.32;5.05;;;16.00;99.90;;;;;;5071929;28;20668;-59
2022/04/13 12:02:15;;;;;;;6.82;5.30;;;16.00;99.90;;;;;;5074949;28;20621;-59
2022/04/13 12:04:45;;;;;;;7.18;5.68;;;16.10;99.90;;;;;;5092847;28;20265;-59
2022/04/13 12:07:11;;;;;;;8.00;5.85;;;16.10;99.90;;;;;;5092982;28;20261;-59
2022/04/13 12:09:37;;;;;;;7.20;5.40;;;16.10;99.90;;;;;;5093105;28;20182;-59
2022/04/13 12:12:03;;;;;;;8.10;5.72;;;16.20;99.90;;;;;;5093237;28;20576;-59
2022/04/13 12:14:36;;;;;;;7.53;6.05;;;16.30;99.90;;;;;;5074953;28;20645;-59
2022/04/13 12:17:02;;;;;;;8.73;6.55;;;16.40;99.90;;;;;;5076006;28;20182;-59
2022/04/13 12:19:42;;;;;;;7.47;5.78;;;16.50;99.90;;;;;;5092695;28;20237;-59
2022/04/13 12:22:21;;;;;;;6.53;5.20;;;16.40;99.90;;;;;;5074984;28;20178;-59
2022/04/13 12:25:05;;;;;;;8.82;6.53;;;16.40;99.90;;;;;;5092930;28;20181;-59
2022/04/13 12:27:30;;;;;;;9.90;6.13;;;16.50;99.90;;;;;;5092829;28;20170;-59
2022/04/13 12:30:10;;;;;;;12.95;7.65;;;16.60;99.90;;;;;;5092791;28;20180;-60
2022/04/13 12:32:43;;;;;;;8.25;6.03;;;16.60;99.90;;;;;;5074813;28;20246;-60
2022/04/13 12:35:09;;;;;;;8.48;6.15;;;16.60;99.90;;;;;;5092809;28;20530;-59
2022/04/13 12:37:34;;;;;;;10.13;5.95;;;16.60;99.90;;;;;;5075803;28;20202;-59
2022/04/13 12:40:18;;;;;;;13.02;7.60;;;16.80;99.90;;;;;;5096618;28;20219;-59
2022/04/13 12:42:44;;;;;;;13.90;8.70;;;16.90;99.90;;;;;;5078340;28;20509;-59
2022/04/13 12:45:12;;;;;;;21.48;11.75;;;17.00;99.90;;;;;;5078308;28;20192;-59
2022/04/13 12:47:48;;;;;;;8.65;6.00;;;17.10;99.90;;;;;;5096339;28;20178;-59
2022/04/13 12:50:15;;;;;;;6.75;5.47;;;17.20;99.90;;;;;;5096324;28;20223;-59